Time;durP1;ratioP1;P1;durP2;ratioP2;P2;SDS_P1;SDS_P2;PMS_P1;PMS_P2;Temp;Humidity;BMP_temperature;BMP_pressure;BME280_temperature;BME280_humidity;BME280_pressure;Samples;Min_cycle;Max_cycle;Signal;HPM_P1;HPM_P2
2021/08/23 00:00:13;;;;;;;4.13;1.00;;;;;;;;;;5031020;28;20107;-54
2021/08/23 00:02:40;;;;;;;1.20;0.80;;;;;;;;;;5027693;28;20117;-54
2021/08/23 00:05:07;;;;;;;3.28;1.00;;;;;;;;;;5033697;28;20045;-50
2021/08/23 00:07:33;;;;;;;1.83;1.10;;;;;;;;;;5032180;28;20033;-53
2021/08/23 00:10:00;;;;;;;5.28;1.58;;;;;;;;;;5033361;28;20095;-54
2021/08/23 00:12:29;;;;;;;4.28;1.17;;;;;;;;;;5032489;28;20070;-53
2021/08/23 00:14:57;;;;;;;4.43;1.10;;;;;;;;;;5017910;28;20571;-54
2021/08/23 00:17:23;;;;;;;2.53;0.90;;;;;;;;;;5032246;28;20041;-54
2021/08/23 00:19:50;;;;;;;3.25;1.10;;;;;;;;;;5023685;28;20481;-53
2021/08/23 00:22:33;;;;;;;3.42;1.00;;;;;;;;;;5044554;28;20112;-53
2021/08/23 00:25:00;;;;;;;5.18;1.13;;;;;;;;;;5032243;28;20041;-53
2021/08/23 00:27:28;;;;;;;1.23;0.90;;;;;;;;;;5023765;28;20041;-53
2021/08/23 00:29:55;;;;;;;1.05;0.93;;;;;;;;;;5022463;28;20040;-53
2021/08/23 00:32:22;;;;;;;2.50;1.20;;;;;;;;;;5028031;28;20033;-49
2021/08/23 00:34:48;;;;;;;1.45;0.88;;;;;;;;;;5030365;28;20719;-55
2021/08/23 00:37:15;;;;;;;2.95;0.80;;;;;;;;;;5033839;28;20029;-53
2021/08/23 00:39:42;;;;;;;1.63;0.90;;;;;;;;;;5031345;28;20379;-53
2021/08/23 00:42:09;;;;;;;2.00;0.85;;;;;;;;;;5029349;28;20563;-52
2021/08/23 00:44:36;;;;;;;0.80;0.80;;;;;;;;;;5031915;28;20045;-52
2021/08/23 00:47:06;;;;;;;2.38;1.13;;;;;;;;;;5031194;28;20022;-52
2021/08/23 00:49:34;;;;;;;2.55;1.00;;;;;;;;;;5031034;28;20083;-53
2021/08/23 00:52:01;;;;;;;6.07;1.10;;;;;;;;;;5032112;28;20092;-52
2021/08/23 00:54:28;;;;;;;1.00;0.90;;;;;;;;;;5032339;28;20055;-50
2021/08/23 00:56:55;;;;;;;2.85;1.10;;;;;;;;;;5028559;28;20033;-53
2021/08/23 00:59:22;;;;;;;2.55;1.30;;;;;;;;;;5029490;28;20036;-53
2021/08/23 01:01:49;;;;;;;2.35;0.90;;;;;;;;;;5031513;28;20033;-51
2021/08/23 01:04:22;;;;;;;5.35;1.65;;;;;;;;;;5029001;28;20046;-54
2021/08/23 01:06:49;;;;;;;1.80;0.98;;;;;;;;;;5031739;28;20401;-53
2021/08/23 01:09:17;;;;;;;0.73;0.73;;;;;;;;;;5031247;28;20037;-53
2021/08/23 01:11:51;;;;;;;1.65;0.90;;;;;;;;;;5031910;28;20473;-54
2021/08/23 01:14:19;;;;;;;1.70;1.05;;;;;;;;;;5017353;28;20042;-53
2021/08/23 01:16:46;;;;;;;2.40;0.90;;;;;;;;;;5025500;28;20418;-52
2021/08/23 01:19:13;;;;;;;2.33;1.08;;;;;;;;;;5030202;28;20033;-54
2021/08/23 01:21:41;;;;;;;0.80;0.80;;;;;;;;;;5031671;28;20099;-52
2021/08/23 01:24:08;;;;;;;4.40;1.10;;;;;;;;;;5022297;28;20068;-53
2021/08/23 01:26:39;;;;;;;6.80;1.10;;;;;;;;;;5017811;28;20061;-52
2021/08/23 01:29:25;;;;;;;1.25;1.00;;;;;;;;;;5028405;28;20091;-53
2021/08/23 01:32:02;;;;;;;0.80;0.80;;;;;;;;;;5030556;28;20037;-54
2021/08/23 01:34:29;;;;;;;1.13;1.00;;;;;;;;;;5021408;28;20037;-52
2021/08/23 01:36:55;;;;;;;2.45;1.00;;;;;;;;;;5030621;28;20041;-52
2021/08/23 01:39:22;;;;;;;1.13;1.08;;;;;;;;;;5027990;28;20425;-52
2021/08/23 01:41:49;;;;;;;2.35;1.00;;;;;;;;;;5024343;28;20042;-53
2021/08/23 01:44:16;;;;;;;1.70;0.93;;;;;;;;;;5031393;28;20048;-51
2021/08/23 01:46:43;;;;;;;3.17;0.90;;;;;;;;;;5030164;28;20088;-53
2021/08/23 01:49:11;;;;;;;1.42;1.00;;;;;;;;;;5030599;28;20107;-52
2021/08/23 01:51:38;;;;;;;1.15;1.05;;;;;;;;;;5030586;28;20045;-53
2021/08/23 01:54:05;;;;;;;1.15;1.10;;;;;;;;;;5032331;28;20095;-53
2021/08/23 01:56:31;;;;;;;3.25;1.35;;;;;;;;;;5030946;28;20040;-54
2021/08/23 01:58:59;;;;;;;7.03;1.88;;;;;;;;;;5021201;28;20518;-54
2021/08/23 02:01:26;;;;;;;2.55;0.90;;;;;;;;;;5028314;28;20049;-53
2021/08/23 02:03:53;;;;;;;2.65;0.90;;;;;;;;;;5030049;28;20040;-53
2021/08/23 02:06:19;;;;;;;1.30;0.90;;;;;;;;;;5024738;28;20079;-52
2021/08/23 02:08:46;;;;;;;1.35;0.90;;;;;;;;;;5030955;28;20033;-53
2021/08/23 02:11:13;;;;;;;0.80;0.80;;;;;;;;;;5018792;28;20120;-54
2021/08/23 02:13:40;;;;;;;1.83;1.00;;;;;;;;;;5030737;28;20053;-54
2021/08/23 02:16:06;;;;;;;1.00;0.90;;;;;;;;;;5029763;28;20500;-53
2021/08/23 02:18:34;;;;;;;1.35;0.80;;;;;;;;;;5020432;28;20052;-51
2021/08/23 02:21:00;;;;;;;1.13;1.02;;;;;;;;;;5029953;28;20562;-52
2021/08/23 02:23:27;;;;;;;2.22;0.90;;;;;;;;;;5020458;28;20041;-52
2021/08/23 02:25:54;;;;;;;1.08;0.90;;;;;;;;;;5030639;28;20042;-52
2021/08/23 02:28:21;;;;;;;1.05;1.05;;;;;;;;;;5028203;28;20095;-53
2021/08/23 02:30:48;;;;;;;2.85;1.20;;;;;;;;;;5021575;28;20048;-53
2021/08/23 02:33:14;;;;;;;1.50;1.02;;;;;;;;;;5029785;28;20033;-52
2021/08/23 02:35:41;;;;;;;5.30;1.35;;;;;;;;;;5013114;28;20108;-54
2021/08/23 02:38:08;;;;;;;2.38;1.15;;;;;;;;;;5030786;28;20243;-53
2021/08/23 02:40:35;;;;;;;1.20;1.15;;;;;;;;;;5029046;28;20037;-53
2021/08/23 02:43:01;;;;;;;1.73;1.00;;;;;;;;;;5027418;28;20489;-52
2021/08/23 02:45:28;;;;;;;3.08;1.02;;;;;;;;;;5029936;28;20045;-54
2021/08/23 02:47:55;;;;;;;2.95;1.20;;;;;;;;;;5026735;28;20152;-53
2021/08/23 02:50:22;;;;;;;1.67;1.20;;;;;;;;;;5030880;28;20394;-53
2021/08/23 02:52:49;;;;;;;5.68;1.10;;;;;;;;;;5028093;28;20037;-53
2021/08/23 02:55:15;;;;;;;4.10;1.15;;;;;;;;;;5030845;28;20075;-52
2021/08/23 02:57:42;;;;;;;4.35;0.98;;;;;;;;;;5026973;28;20521;-52
2021/08/23 03:00:09;;;;;;;2.85;1.63;;;;;;;;;;5039335;28;20438;-54
2021/08/23 03:02:36;;;;;;;3.20;1.27;;;;;;;;;;5030283;28;20456;-52
2021/08/23 03:05:04;;;;;;;1.55;1.45;;;;;;;;;;5026883;28;20057;-53
2021/08/23 03:07:30;;;;;;;1.73;1.38;;;;;;;;;;5030325;28;20099;-54
2021/08/23 03:09:57;;;;;;;1.08;1.00;;;;;;;;;;5030435;28;20041;-52
2021/08/23 03:12:24;;;;;;;1.38;1.00;;;;;;;;;;5028931;28;20034;-54
2021/08/23 03:14:51;;;;;;;2.05;1.00;;;;;;;;;;5033096;28;20045;-52
2021/08/23 03:17:20;;;;;;;2.60;1.38;;;;;;;;;;5032075;28;20171;-52
2021/08/23 03:19:47;;;;;;;1.40;1.30;;;;;;;;;;5033636;28;20076;-52
2021/08/23 03:22:13;;;;;;;1.17;1.17;;;;;;;;;;5032998;28;20397;-54
2021/08/23 03:24:40;;;;;;;1.45;0.90;;;;;;;;;;5033847;28;20040;-51
2021/08/23 03:27:07;;;;;;;2.55;1.10;;;;;;;;;;5034045;28;20049;-54
2021/08/23 03:29:33;;;;;;;1.27;1.17;;;;;;;;;;5028743;28;20037;-53
2021/08/23 03:32:00;;;;;;;2.90;1.17;;;;;;;;;;5034032;28;20041;-53
2021/08/23 03:34:27;;;;;;;2.17;1.00;;;;;;;;;;5030009;28;20048;-53
2021/08/23 03:36:54;;;;;;;2.03;0.95;;;;;;;;;;5032303;28;20041;-52
2021/08/23 03:39:20;;;;;;;3.25;1.10;;;;;;;;;;5035239;28;20033;-54
2021/08/23 03:41:47;;;;;;;1.48;1.00;;;;;;;;;;5033006;28;20045;-54
2021/08/23 03:44:14;;;;;;;3.55;1.00;;;;;;;;;;5016820;28;20057;-54
2021/08/23 03:46:41;;;;;;;2.97;1.00;;;;;;;;;;5033514;28;20045;-53
2021/08/23 03:49:08;;;;;;;2.40;1.23;;;;;;;;;;5033854;28;20037;-52
2021/08/23 03:51:35;;;;;;;1.73;1.63;;;;;;;;;;5033167;28;20042;-52
2021/08/23 03:54:01;;;;;;;2.42;1.42;;;;;;;;;;5032149;28;20432;-54
2021/08/23 03:56:28;;;;;;;1.30;1.20;;;;;;;;;;5015726;28;20053;-53
2021/08/23 03:58:55;;;;;;;2.38;1.10;;;;;;;;;;5034570;28;20064;-52
2021/08/23 04:01:22;;;;;;;2.72;1.83;;;;;;;;;;5024746;28;20045;-50
2021/08/23 04:03:49;;;;;;;1.35;1.25;;;;;;;;;;5032619;28;20106;-53
2021/08/23 04:06:16;;;;;;;1.30;1.20;;;;;;;;;;5030833;28;20494;-54
2021/08/23 04:08:43;;;;;;;2.55;1.10;;;;;;;;;;5032235;28;20397;-53
2021/08/23 04:11:13;;;;;;;1.55;1.45;;;;;;;;;;5033560;28;20441;-54
2021/08/23 04:13:40;;;;;;;1.10;1.00;;;;;;;;;;5030219;28;20076;-53
2021/08/23 04:16:15;;;;;;;2.45;1.33;;;;;;;;;;5034826;28;20041;-53
2021/08/23 04:18:42;;;;;;;5.78;1.30;;;;;;;;;;5029473;28;20577;-53
2021/08/23 04:21:09;;;;;;;1.20;1.13;;;;;;;;;;5031078;28;20561;-54
2021/08/23 04:23:36;;;;;;;1.20;1.20;;;;;;;;;;5033148;28;20041;-53
2021/08/23 04:26:03;;;;;;;5.40;1.60;;;;;;;;;;5031565;28;20036;-53
2021/08/23 04:28:31;;;;;;;2.75;1.30;;;;;;;;;;5028746;28;20029;-54
2021/08/23 04:30:58;;;;;;;2.22;1.98;;;;;;;;;;5032575;28;20103;-53
2021/08/23 04:33:25;;;;;;;1.30;1.20;;;;;;;;;;5030582;28;20053;-55
2021/08/23 04:35:52;;;;;;;1.98;1.55;;;;;;;;;;5026528;28;20107;-51
2021/08/23 04:38:19;;;;;;;3.47;1.50;;;;;;;;;;5031476;28;20072;-53
2021/08/23 04:40:45;;;;;;;2.05;1.15;;;;;;;;;;5031988;28;20482;-53
2021/08/23 04:43:12;;;;;;;2.00;1.38;;;;;;;;;;5032999;28;20033;-53
2021/08/23 04:45:39;;;;;;;3.67;1.20;;;;;;;;;;5025196;28;20068;-55
2021/08/23 04:48:06;;;;;;;3.15;1.15;;;;;;;;;;5028189;28;20555;-53
2021/08/23 04:50:32;;;;;;;2.08;1.13;;;;;;;;;;5030330;28;20073;-53
2021/08/23 04:52:59;;;;;;;1.92;1.30;;;;;;;;;;5031910;28;20037;-53
2021/08/23 04:55:26;;;;;;;2.58;1.30;;;;;;;;;;5032806;28;20037;-53
2021/08/23 04:57:53;;;;;;;3.08;1.25;;;;;;;;;;5032122;28;20041;-55
2021/08/23 05:00:20;;;;;;;4.25;1.55;;;;;;;;;;5032385;28;20033;-54
2021/08/23 05:02:47;;;;;;;1.10;1.00;;;;;;;;;;5030084;28;20069;-54
2021/08/23 05:05:14;;;;;;;1.10;1.00;;;;;;;;;;5028930;28;20072;-52
2021/08/23 05:07:41;;;;;;;1.88;1.10;;;;;;;;;;5032997;28;20042;-53
2021/08/23 05:10:08;;;;;;;1.75;1.05;;;;;;;;;;5031623;28;20504;-53
2021/08/23 05:12:35;;;;;;;2.10;1.02;;;;;;;;;;5032294;28;20045;-53
2021/08/23 05:15:02;;;;;;;2.00;1.35;;;;;;;;;;5030598;28;20041;-54
2021/08/23 05:17:29;;;;;;;2.35;1.20;;;;;;;;;;5022179;28;20041;-54
2021/08/23 05:19:55;;;;;;;1.50;1.40;;;;;;;;;;5032185;28;20168;-50
2021/08/23 05:22:24;;;;;;;4.43;1.23;;;;;;;;;;5027543;28;20053;-50
2021/08/23 05:24:51;;;;;;;4.07;1.80;;;;;;;;;;5049976;28;20499;-54
2021/08/23 05:27:18;;;;;;;7.53;1.10;;;;;;;;;;5029249;28;20037;-55
2021/08/23 05:29:45;;;;;;;1.98;1.27;;;;;;;;;;5030811;28;20040;-55
2021/08/23 05:32:16;;;;;;;1.65;0.90;;;;;;;;;;5028854;28;20040;-55
2021/08/23 05:34:47;;;;;;;2.80;1.27;;;;;;;;;;5026187;28;20044;-56
2021/08/23 05:37:13;;;;;;;3.28;1.38;;;;;;;;;;5030980;28;20080;-56
2021/08/23 05:39:40;;;;;;;1.20;1.10;;;;;;;;;;5031467;28;20049;-54
2021/08/23 05:42:07;;;;;;;1.40;1.20;;;;;;;;;;5030982;28;20376;-55
2021/08/23 05:44:34;;;;;;;1.35;1.00;;;;;;;;;;5031615;28;20053;-55
2021/08/23 05:47:00;;;;;;;2.13;1.00;;;;;;;;;;5024895;28;20050;-56
2021/08/23 05:49:27;;;;;;;3.80;0.90;;;;;;;;;;5016707;28;20125;-55
2021/08/23 05:51:54;;;;;;;6.63;1.27;;;;;;;;;;5031116;28;20045;-55
2021/08/23 05:54:25;;;;;;;1.42;1.20;;;;;;;;;;5030427;28;20034;-56
2021/08/23 05:56:53;;;;;;;4.93;1.33;;;;;;;;;;5032050;28;20045;-55
2021/08/23 05:59:19;;;;;;;4.13;1.02;;;;;;;;;;5026241;28;20107;-56
2021/08/23 06:01:51;;;;;;;3.30;1.20;;;;;;;;;;5021859;28;20038;-55
2021/08/23 06:04:19;;;;;;;2.42;1.30;;;;;;;;;;5030082;28;20488;-55
2021/08/23 06:06:46;;;;;;;1.25;1.00;;;;;;;;;;5030682;28;20046;-55
2021/08/23 06:09:14;;;;;;;3.53;1.20;;;;;;;;;;5031483;28;20056;-55
2021/08/23 06:11:41;;;;;;;1.15;1.00;;;;;;;;;;5028548;28;20033;-56
2021/08/23 06:14:08;;;;;;;4.22;1.00;;;;;;;;;;5030992;28;20425;-56
2021/08/23 06:16:34;;;;;;;6.53;1.20;;;;;;;;;;5032160;28;20056;-55
2021/08/23 06:19:01;;;;;;;4.80;1.60;;;;;;;;;;5029599;28;20045;-56
2021/08/23 06:21:28;;;;;;;2.55;1.02;;;;;;;;;;5031073;28;20413;-55
2021/08/23 06:23:55;;;;;;;1.30;1.10;;;;;;;;;;5030472;28;20527;-56
2021/08/23 06:26:22;;;;;;;4.78;1.10;;;;;;;;;;5029537;28;20386;-56
2021/08/23 06:28:48;;;;;;;1.88;1.05;;;;;;;;;;5032433;28;20474;-55
2021/08/23 06:31:15;;;;;;;2.42;1.08;;;;;;;;;;5027773;28;20029;-56
2021/08/23 06:33:42;;;;;;;2.30;1.10;;;;;;;;;;5030368;28;20049;-56
2021/08/23 06:36:09;;;;;;;1.25;1.10;;;;;;;;;;5031421;28;20095;-56
2021/08/23 06:38:36;;;;;;;3.30;1.00;;;;;;;;;;5030754;28;20091;-56
2021/08/23 06:41:02;;;;;;;1.23;1.10;;;;;;;;;;5030284;28;20037;-56
2021/08/23 06:43:29;;;;;;;3.10;0.90;;;;;;;;;;5027939;28;20087;-56
2021/08/23 06:45:56;;;;;;;1.67;1.00;;;;;;;;;;5026418;28;20064;-55
2021/08/23 06:48:23;;;;;;;4.72;1.42;;;;;;;;;;5024509;28;20505;-56
2021/08/23 06:50:49;;;;;;;2.25;1.00;;;;;;;;;;5029706;28;20047;-56
2021/08/23 06:53:16;;;;;;;2.70;1.05;;;;;;;;;;5017044;28;20034;-55
2021/08/23 06:55:43;;;;;;;1.20;1.10;;;;;;;;;;5027259;28;20053;-56
2021/08/23 06:58:10;;;;;;;2.67;0.98;;;;;;;;;;5029920;28;20049;-56
2021/08/23 07:00:36;;;;;;;3.15;0.90;;;;;;;;;;5022581;28;20077;-55
2021/08/23 07:03:04;;;;;;;3.28;0.85;;;;;;;;;;5023091;28;20037;-56
2021/08/23 07:05:31;;;;;;;0.88;0.80;;;;;;;;;;5021734;28;20042;-56
2021/08/23 07:07:58;;;;;;;5.32;1.30;;;;;;;;;;5029120;28;20095;-56
2021/08/23 07:10:24;;;;;;;2.15;0.90;;;;;;;;;;5030584;28;20049;-56
2021/08/23 07:12:51;;;;;;;2.13;0.90;;;;;;;;;;5028450;28;20478;-56
2021/08/23 07:15:18;;;;;;;1.10;1.00;;;;;;;;;;5028224;28;20041;-55
2021/08/23 07:17:45;;;;;;;2.75;1.05;;;;;;;;;;5024755;28;20061;-55
2021/08/23 07:20:19;;;;;;;4.13;1.30;;;;;;;;;;5028052;28;20128;-56
2021/08/23 07:22:45;;;;;;;3.60;1.15;;;;;;;;;;5027553;28;20069;-55
2021/08/23 07:25:12;;;;;;;2.08;0.82;;;;;;;;;;5030240;28;20052;-56
2021/08/23 07:27:39;;;;;;;2.78;0.90;;;;;;;;;;5029661;28;20056;-55
2021/08/23 07:30:06;;;;;;;3.88;1.17;;;;;;;;;;5029649;28;20041;-56
2021/08/23 07:32:33;;;;;;;0.80;0.80;;;;;;;;;;5030375;28;20033;-56
2021/08/23 07:35:00;;;;;;;0.80;0.80;;;;;;;;;;5020689;28;20049;-55
2021/08/23 07:37:26;;;;;;;3.22;1.23;;;;;;;;;;5018401;28;20070;-56
2021/08/23 07:39:53;;;;;;;2.70;1.00;;;;;;;;;;5024646;28;20048;-56
2021/08/23 07:42:20;;;;;;;0.80;0.77;;;;;;;;;;5013319;28;20046;-56
2021/08/23 07:44:46;;;;;;;1.35;0.90;;;;;;;;;;5023602;28;20049;-56
2021/08/23 07:47:13;;;;;;;1.30;1.20;;;;;;;;;;5019018;28;20099;-56
2021/08/23 07:49:40;;;;;;;0.80;0.80;;;;;;;;;;5031228;28;20049;-54
2021/08/23 07:52:07;;;;;;;1.90;0.90;;;;;;;;;;5028039;28;20037;-56
2021/08/23 07:54:36;;;;;;;6.88;0.90;;;;;;;;;;5012911;28;20040;-56
2021/08/23 07:57:03;;;;;;;10.95;0.80;;;;;;;;;;5025366;28;20053;-55
2021/08/23 07:59:30;;;;;;;1.00;0.90;;;;;;;;;;5022687;28;20044;-56
2021/08/23 08:01:57;;;;;;;1.85;1.20;;;;;;;;;;5019510;28;20466;-56
2021/08/23 08:04:23;;;;;;;2.13;0.70;;;;;;;;;;5033134;28;20037;-56
2021/08/23 08:06:52;;;;;;;1.00;0.60;;;;;;;;;;5035948;28;20053;-56
2021/08/23 08:09:19;;;;;;;5.90;0.80;;;;;;;;;;5034109;28;20129;-56
2021/08/23 08:11:46;;;;;;;4.03;0.80;;;;;;;;;;5032165;28;20347;-56
2021/08/23 08:14:13;;;;;;;1.58;0.80;;;;;;;;;;5033612;28;20040;-55
2021/08/23 08:16:39;;;;;;;2.10;0.82;;;;;;;;;;5033421;28;20041;-56
2021/08/23 08:19:06;;;;;;;5.57;0.90;;;;;;;;;;5025452;28;20069;-56
2021/08/23 08:21:35;;;;;;;1.08;0.80;;;;;;;;;;5034089;28;20056;-55
2021/08/23 08:24:02;;;;;;;2.42;0.80;;;;;;;;;;5032968;28;20498;-56
2021/08/23 08:26:28;;;;;;;2.45;0.80;;;;;;;;;;5032864;28;20049;-55
2021/08/23 08:28:55;;;;;;;1.17;0.73;;;;;;;;;;5025710;28;20045;-55
2021/08/23 08:31:22;;;;;;;1.25;0.85;;;;;;;;;;5019835;28;20041;-56
2021/08/23 08:33:49;;;;;;;2.72;0.80;;;;;;;;;;5033334;28;20479;-55
2021/08/23 08:36:15;;;;;;;2.13;1.00;;;;;;;;;;5031941;28;20132;-56
2021/08/23 08:38:42;;;;;;;2.95;0.80;;;;;;;;;;5018967;28;20513;-56
2021/08/23 08:41:09;;;;;;;2.25;0.80;;;;;;;;;;5032372;28;20038;-55
2021/08/23 08:43:37;;;;;;;0.80;0.80;;;;;;;;;;5032734;28;20045;-55
2021/08/23 08:46:05;;;;;;;3.15;0.90;;;;;;;;;;5032200;28;20531;-56
2021/08/23 08:48:33;;;;;;;4.18;1.10;;;;;;;;;;5031606;28;20045;-56
2021/08/23 08:51:00;;;;;;;0.90;0.90;;;;;;;;;;5023496;28;20095;-56
2021/08/23 08:53:27;;;;;;;1.75;0.90;;;;;;;;;;5027746;28;20042;-56
2021/08/23 08:55:54;;;;;;;1.15;0.80;;;;;;;;;;5022710;28;20056;-56
2021/08/23 08:58:23;;;;;;;1.15;1.00;;;;;;;;;;5032221;28;20104;-57
2021/08/23 09:00:51;;;;;;;3.70;0.90;;;;;;;;;;5029832;28;20124;-55
2021/08/23 09:03:28;;;;;;;3.22;0.80;;;;;;;;;;5028739;28;20040;-56
2021/08/23 09:06:05;;;;;;;1.05;0.77;;;;;;;;;;5033146;28;20096;-55
2021/08/23 09:08:39;;;;;;;0.95;0.90;;;;;;;;;;5030856;28;20052;-56
2021/08/23 09:11:09;;;;;;;1.42;0.90;;;;;;;;;;5012889;28;20099;-56
2021/08/23 09:13:36;;;;;;;3.55;0.93;;;;;;;;;;5032808;28;20033;-56
2021/08/23 09:16:05;;;;;;;2.13;0.80;;;;;;;;;;5031540;28;20037;-56
2021/08/23 09:18:33;;;;;;;3.80;1.30;;;;;;;;;;5030839;28;20509;-56
2021/08/23 09:21:01;;;;;;;1.00;0.90;;;;;;;;;;5028888;28;20037;-55
2021/08/23 09:23:42;;;;;;;0.93;0.75;;;;;;;;;;5016394;28;20064;-56
2021/08/23 09:26:10;;;;;;;2.67;0.88;;;;;;;;;;5021552;28;20096;-56
2021/08/23 09:28:38;;;;;;;1.35;0.90;;;;;;;;;;5024663;28;20033;-55
2021/08/23 09:31:10;;;;;;;0.88;0.88;;;;;;;;;;5031273;28;20037;-56
2021/08/23 09:33:40;;;;;;;0.80;0.80;;;;;;;;;;5032743;28;20095;-55
2021/08/23 09:36:07;;;;;;;2.95;0.93;;;;;;;;;;5031200;28;20081;-55
2021/08/23 09:38:35;;;;;;;1.45;1.27;;;;;;;;;;5023035;28;20550;-55
2021/08/23 09:41:04;;;;;;;1.00;0.90;;;;;;;;;;5027296;28;20469;-55
2021/08/23 09:43:33;;;;;;;1.48;0.90;;;;;;;;;;5030872;28;20042;-56
2021/08/23 09:46:02;;;;;;;1.27;1.10;;;;;;;;;;5022776;28;20045;-56
2021/08/23 09:48:28;;;;;;;1.48;1.02;;;;;;;;;;5021977;28;20033;-55
2021/08/23 09:50:55;;;;;;;0.88;0.88;;;;;;;;;;5015776;28;20034;-56
2021/08/23 09:53:22;;;;;;;3.55;0.90;;;;;;;;;;5028289;28;20041;-56
2021/08/23 09:55:50;;;;;;;2.35;0.80;;;;;;;;;;5029362;28;20038;-56
2021/08/23 09:58:16;;;;;;;1.35;0.90;;;;;;;;;;5046086;28;20049;-57
2021/08/23 10:00:44;;;;;;;2.33;0.90;;;;;;;;;;5030703;28;20110;-55
2021/08/23 10:03:31;;;;;;;1.30;0.80;;;;;;;;;;5015847;28;20060;-56
2021/08/23 10:06:13;;;;;;;1.40;1.05;;;;;;;;;;5031159;28;20045;-55
2021/08/23 10:08:40;;;;;;;0.80;0.80;;;;;;;;;;5022798;28;20096;-56
2021/08/23 10:11:09;;;;;;;1.67;0.90;;;;;;;;;;5031506;28;20121;-55
2021/08/23 10:13:36;;;;;;;2.05;0.90;;;;;;;;;;5027032;28;20053;-55
2021/08/23 10:16:03;;;;;;;2.10;1.10;;;;;;;;;;5015939;28;20410;-56
2021/08/23 10:18:30;;;;;;;2.13;1.02;;;;;;;;;;5030701;28;20383;-57
2021/08/23 10:20:56;;;;;;;1.38;0.90;;;;;;;;;;5028994;28;20554;-56
2021/08/23 10:23:23;;;;;;;3.25;0.80;;;;;;;;;;5020561;28;20046;-56
2021/08/23 10:25:50;;;;;;;1.67;0.80;;;;;;;;;;5030843;28;20076;-56
2021/08/23 10:28:19;;;;;;;1.38;0.90;;;;;;;;;;5030379;28;20042;-56
2021/08/23 10:30:47;;;;;;;2.33;0.80;;;;;;;;;;5031020;28;20037;-56
2021/08/23 10:33:19;;;;;;;2.47;0.80;;;;;;;;;;5029150;28;20037;-56
2021/08/23 10:35:49;;;;;;;4.00;1.15;;;;;;;;;;5012717;28;20129;-57
2021/08/23 10:38:17;;;;;;;1.38;0.95;;;;;;;;;;5031265;28;20045;-56
2021/08/23 10:40:48;;;;;;;1.60;0.85;;;;;;;;;;5030684;28;20132;-56
2021/08/23 10:43:19;;;;;;;2.33;0.80;;;;;;;;;;5015875;28;20108;-56
2021/08/23 10:45:47;;;;;;;1.42;0.80;;;;;;;;;;5026617;28;20560;-56
2021/08/23 10:48:15;;;;;;;1.58;0.77;;;;;;;;;;5025987;28;20116;-55
2021/08/23 10:50:42;;;;;;;1.67;0.73;;;;;;;;;;5030487;28;20040;-55
2021/08/23 10:53:13;;;;;;;1.45;1.00;;;;;;;;;;5025670;28;20490;-55
2021/08/23 10:55:40;;;;;;;1.45;0.88;;;;;;;;;;5018503;28;20046;-56
2021/08/23 10:58:08;;;;;;;1.20;1.05;;;;;;;;;;5028912;28;20609;-55
2021/08/23 11:00:36;;;;;;;2.58;0.70;;;;;;;;;;5029129;28;20037;-56
2021/08/23 11:03:03;;;;;;;1.70;0.80;;;;;;;;;;5020582;28;20432;-55
2021/08/23 11:05:30;;;;;;;1.23;0.80;;;;;;;;;;5022839;28;20485;-56
2021/08/23 11:08:07;;;;;;;1.83;0.75;;;;;;;;;;5021795;28;20121;-56
2021/08/23 11:10:37;;;;;;;1.15;1.13;;;;;;;;;;5026554;28;20034;-56
2021/08/23 11:13:12;;;;;;;1.63;0.85;;;;;;;;;;5020386;28;20033;-56
2021/08/23 11:15:39;;;;;;;1.45;0.82;;;;;;;;;;5028613;28;20074;-56
2021/08/23 11:18:10;;;;;;;2.55;1.00;;;;;;;;;;5028028;28;20046;-56
2021/08/23 11:20:41;;;;;;;0.73;0.70;;;;;;;;;;5023844;28;20042;-55
2021/08/23 11:23:11;;;;;;;0.90;0.80;;;;;;;;;;5023216;28;20069;-56
2021/08/23 11:25:42;;;;;;;1.08;0.82;;;;;;;;;;5027740;28;20053;-56
2021/08/23 11:28:11;;;;;;;2.92;0.90;;;;;;;;;;5016040;28;20050;-56
2021/08/23 11:30:39;;;;;;;1.50;0.82;;;;;;;;;;5026293;28;20033;-55
2021/08/23 11:33:07;;;;;;;1.05;0.80;;;;;;;;;;5031568;28;20045;-56
2021/08/23 11:35:34;;;;;;;0.80;0.80;;;;;;;;;;5024578;28;20050;-56
2021/08/23 11:38:03;;;;;;;1.30;1.20;;;;;;;;;;5028906;28;20051;-54
2021/08/23 11:40:31;;;;;;;0.80;0.80;;;;;;;;;;5028992;28;20072;-55
2021/08/23 11:42:59;;;;;;;1.38;0.80;;;;;;;;;;5032212;28;20191;-55
2021/08/23 11:45:27;;;;;;;0.80;0.80;;;;;;;;;;5032608;28;20437;-55
2021/08/23 11:47:55;;;;;;;2.05;0.80;;;;;;;;;;5028366;28;20111;-55
2021/08/23 11:50:22;;;;;;;4.20;0.80;;;;;;;;;;5032968;28;20029;-55
2021/08/23 11:52:50;;;;;;;0.82;0.82;;;;;;;;;;5024941;28;20046;-55
2021/08/23 11:55:27;;;;;;;0.73;0.73;;;;;;;;;;5033432;28;20037;-55
2021/08/23 11:57:57;;;;;;;0.73;0.73;;;;;;;;;;5030101;28;20040;-55
2021/08/23 12:00:24;;;;;;;1.02;0.80;;;;;;;;;;5034912;28;20049;-55
2021/08/23 12:02:59;;;;;;;1.02;0.70;;;;;;;;;;5031744;28;20438;-55
2021/08/23 12:05:31;;;;;;;0.93;0.82;;;;;;;;;;5032118;28;20038;-55
2021/08/23 12:07:58;;;;;;;1.00;0.90;;;;;;;;;;5022587;28;20130;-55
2021/08/23 12:10:25;;;;;;;1.35;0.80;;;;;;;;;;5030150;28;20330;-55
2021/08/23 12:12:52;;;;;;;0.70;0.70;;;;;;;;;;5032801;28;20104;-56
2021/08/23 12:15:23;;;;;;;0.95;0.80;;;;;;;;;;5032623;28;20046;-55
2021/08/23 12:17:50;;;;;;;1.95;0.77;;;;;;;;;;5032008;28;20045;-55
2021/08/23 12:20:20;;;;;;;0.73;0.73;;;;;;;;;;5020105;28;20057;-55
2021/08/23 12:22:47;;;;;;;1.17;0.90;;;;;;;;;;5031709;28;20045;-55
2021/08/23 12:25:22;;;;;;;1.42;0.80;;;;;;;;;;5021812;28;20042;-55
2021/08/23 12:27:50;;;;;;;1.00;0.90;;;;;;;;;;5033607;28;20037;-55
2021/08/23 12:30:27;;;;;;;0.95;0.80;;;;;;;;;;5030877;28;20043;-56
2021/08/23 12:32:54;;;;;;;0.70;0.70;;;;;;;;;;5026862;28;20124;-54
2021/08/23 12:35:28;;;;;;;1.10;0.80;;;;;;;;;;5028626;28;20069;-45
2021/08/23 12:37:55;;;;;;;0.90;0.90;;;;;;;;;;5021566;28;20044;-48
2021/08/23 12:40:21;;;;;;;1.30;0.90;;;;;;;;;;5032700;28;20041;-48
2021/08/23 12:42:55;;;;;;;1.58;0.98;;;;;;;;;;5031336;28;20034;-45
2021/08/23 12:45:22;;;;;;;1.15;0.70;;;;;;;;;;5015891;28;20388;-46
2021/08/23 12:47:50;;;;;;;0.70;0.70;;;;;;;;;;5033151;28;20072;-46
2021/08/23 12:50:17;;;;;;;2.67;0.80;;;;;;;;;;5029822;28;20033;-46
2021/08/23 12:52:44;;;;;;;1.85;0.70;;;;;;;;;;5039701;28;20676;-46
2021/08/23 12:55:10;;;;;;;0.80;0.80;;;;;;;;;;5027785;28;20520;-46
2021/08/23 12:57:37;;;;;;;1.00;1.00;;;;;;;;;;5016665;28;20486;-46
2021/08/23 13:00:07;;;;;;;1.88;0.80;;;;;;;;;;5033665;28;20401;-45
2021/08/23 13:02:34;;;;;;;1.85;0.70;;;;;;;;;;5031814;28;20068;-45
2021/08/23 13:05:01;;;;;;;0.80;0.80;;;;;;;;;;5015995;28;20446;-44
2021/08/23 13:07:28;;;;;;;1.10;1.00;;;;;;;;;;5032550;28;20480;-45
2021/08/23 13:09:55;;;;;;;3.10;0.80;;;;;;;;;;5023264;28;20065;-45
2021/08/23 13:12:21;;;;;;;1.80;0.77;;;;;;;;;;5024921;28;20471;-45
2021/08/23 13:14:48;;;;;;;1.40;0.70;;;;;;;;;;5023435;28;20035;-46
2021/08/23 13:17:16;;;;;;;1.17;0.80;;;;;;;;;;5033447;28;20414;-45
2021/08/23 13:19:42;;;;;;;0.88;0.70;;;;;;;;;;5025838;28;20054;-46
2021/08/23 13:22:09;;;;;;;3.42;0.73;;;;;;;;;;5021436;28;20037;-46
2021/08/23 13:24:37;;;;;;;0.70;0.70;;;;;;;;;;5033200;28;20052;-45
2021/08/23 13:27:04;;;;;;;1.00;0.82;;;;;;;;;;5031398;28;20042;-44
2021/08/23 13:29:31;;;;;;;0.98;0.70;;;;;;;;;;5031674;28;20049;-46
2021/08/23 13:31:58;;;;;;;0.93;0.70;;;;;;;;;;5025398;28;20045;-47
2021/08/23 13:34:25;;;;;;;1.80;0.75;;;;;;;;;;5020811;28;20509;-44
2021/08/23 13:36:51;;;;;;;3.13;0.98;;;;;;;;;;5031180;28;20049;-46
2021/08/23 13:39:18;;;;;;;2.83;0.77;;;;;;;;;;5027516;28;20124;-46
2021/08/23 13:41:47;;;;;;;0.75;0.75;;;;;;;;;;5030636;28;20034;-45
2021/08/23 13:44:14;;;;;;;0.98;0.82;;;;;;;;;;5031573;28;20382;-46
2021/08/23 13:46:41;;;;;;;0.90;0.90;;;;;;;;;;5030922;28;20207;-45
2021/08/23 13:49:08;;;;;;;0.80;0.80;;;;;;;;;;5032178;28;20045;-49
2021/08/23 13:51:35;;;;;;;2.60;1.00;;;;;;;;;;5031749;28;20044;-48
2021/08/23 13:54:01;;;;;;;0.80;0.80;;;;;;;;;;5024141;28;20233;-47
2021/08/23 13:56:28;;;;;;;1.60;0.80;;;;;;;;;;5032517;28;20056;-45
2021/08/23 13:58:58;;;;;;;1.15;0.77;;;;;;;;;;5030126;28;20052;-46
2021/08/23 14:01:26;;;;;;;2.60;1.52;;;;;;;;;;5031420;28;20148;-48
2021/08/23 14:03:53;;;;;;;1.08;1.00;;;;;;;;;;5027344;28;20104;-45
2021/08/23 14:06:20;;;;;;;0.80;0.80;;;;;;;;;;5016200;28;20044;-47
2021/08/23 14:08:46;;;;;;;0.80;0.80;;;;;;;;;;5032451;28;20496;-45
2021/08/23 14:11:13;;;;;;;0.70;0.70;;;;;;;;;;5020374;28;20072;-45
2021/08/23 14:13:40;;;;;;;1.10;0.80;;;;;;;;;;5018765;28;20049;-45
2021/08/23 14:16:07;;;;;;;0.80;0.70;;;;;;;;;;5030593;28;20049;-45
2021/08/23 14:18:34;;;;;;;1.05;1.05;;;;;;;;;;5029162;28;20038;-45
2021/08/23 14:21:01;;;;;;;0.80;0.80;;;;;;;;;;5020778;28;20045;-47
2021/08/23 14:23:28;;;;;;;0.70;0.70;;;;;;;;;;5026217;28;20083;-46
2021/08/23 14:25:55;;;;;;;2.45;0.80;;;;;;;;;;5023072;28;20052;-47
2021/08/23 14:28:21;;;;;;;0.80;0.80;;;;;;;;;;5028389;28;20041;-45
2021/08/23 14:30:48;;;;;;;0.98;0.90;;;;;;;;;;5030831;28;20041;-47
2021/08/23 14:33:15;;;;;;;1.67;0.80;;;;;;;;;;5029814;28;20077;-46
2021/08/23 14:35:42;;;;;;;0.80;0.80;;;;;;;;;;5029335;28;20132;-45
2021/08/23 14:38:08;;;;;;;1.48;0.80;;;;;;;;;;5012887;28;20057;-47
2021/08/23 14:40:35;;;;;;;1.10;0.77;;;;;;;;;;5030630;28;20088;-46
2021/08/23 14:43:04;;;;;;;1.02;0.70;;;;;;;;;;5020088;28;20489;-45
2021/08/23 14:45:30;;;;;;;0.52;0.52;;;;;;;;;;5030473;28;20552;-46